createdAt,value
2022-08-05T00:02:11.427Z,7.00
2022-08-05T00:04:57.915Z,7.00
2022-08-05T00:08:00.931Z,7.10
2022-08-05T00:10:47.078Z,6.60
2022-08-05T00:13:38.816Z,6.70
2022-08-05T00:16:35.368Z,6.70
2022-08-05T00:19:19.746Z,7.40
2022-08-05T00:22:07.729Z,6.80
2022-08-05T00:24:54.995Z,6.40
2022-08-05T00:27:38.470Z,6.30
2022-08-05T00:30:29.289Z,7.00
2022-08-05T00:34:56.277Z,6.70
2022-08-05T00:37:11.128Z,7.00
2022-08-05T00:39:57.895Z,6.90
2022-08-05T00:42:42.138Z,6.40
2022-08-05T00:45:43.768Z,6.40
2022-08-05T00:48:31.649Z,6.10
2022-08-05T00:51:50.672Z,6.20
2022-08-05T00:54:30.352Z,6.00
2022-08-05T00:57:13.489Z,6.20
2022-08-05T00:59:56.793Z,6.50
2022-08-05T01:02:39.990Z,6.40
2022-08-05T01:05:29.035Z,6.50
2022-08-05T01:08:42.039Z,6.10
2022-08-05T01:11:36.678Z,5.60
2022-08-05T01:14:52.972Z,6.60
2022-08-05T01:17:44.196Z,6.30
2022-08-05T01:20:59.724Z,6.60
2022-08-05T01:24:14.274Z,6.30
2022-08-05T01:27:19.472Z,5.90
2022-08-05T01:30:17.835Z,6.00
2022-08-05T01:33:10.824Z,6.00
2022-08-05T01:36:01.824Z,6.10
2022-08-05T01:38:50.891Z,6.40
2022-08-05T01:41:37.578Z,6.20
2022-08-05T01:44:22.328Z,6.40
2022-08-05T01:47:20.158Z,6.50
2022-08-05T01:50:08.486Z,6.50
2022-08-05T01:53:06.938Z,6.00
2022-08-05T01:56:04.277Z,6.70
2022-08-05T01:58:57.606Z,6.40
2022-08-05T02:01:58.910Z,6.30
2022-08-05T02:04:49.486Z,6.50
2022-08-05T02:07:34.143Z,6.80
2022-08-05T02:10:32.141Z,6.80
2022-08-05T02:13:27.839Z,6.70
2022-08-05T02:16:45.268Z,6.60
2022-08-05T02:19:56.050Z,6.30
2022-08-05T02:22:50.521Z,7.20
2022-08-05T02:25:56.653Z,6.40
2022-08-05T02:28:49.929Z,6.40
2022-08-05T02:31:42.148Z,6.70
2022-08-05T02:34:30.523Z,6.90
2022-08-05T02:37:21.444Z,6.70
2022-08-05T02:40:07.072Z,7.20
2022-08-05T02:43:17.013Z,7.50
2022-08-05T02:46:16.334Z,7.20
2022-08-05T02:49:03.029Z,7.50
2022-08-05T02:52:04.280Z,7.60
2022-08-05T02:54:55.147Z,7.30
2022-08-05T02:58:09.458Z,7.90
2022-08-05T03:01:14.475Z,7.70
2022-08-05T03:04:11.768Z,8.30
2022-08-05T03:07:06.725Z,7.60
2022-08-05T03:10:25.051Z,8.20
2022-08-05T03:13:52.058Z,7.90
2022-08-05T03:16:53.600Z,7.80
2022-08-05T03:20:02.417Z,8.10
2022-08-05T03:23:17.654Z,7.10
2022-08-05T03:26:31.342Z,7.80
2022-08-05T03:29:46.018Z,8.70
2022-08-05T03:32:46.880Z,8.50
2022-08-05T03:35:52.806Z,8.40
2022-08-05T03:38:53.407Z,7.90
2022-08-05T03:41:46.996Z,8.50
2022-08-05T03:44:41.253Z,8.90
2022-08-05T03:47:27.310Z,7.80
2022-08-05T03:50:38.311Z,7.60
2022-08-05T03:55:49.706Z,9.30
2022-08-05T03:57:42.436Z,8.20
2022-08-05T04:00:32.563Z,8.40
2022-08-05T04:03:28.854Z,8.20
2022-08-05T04:06:20.087Z,9.30
2022-08-05T04:09:06.259Z,9.00
2022-08-05T04:11:52.830Z,9.20
2022-08-05T04:14:39.911Z,8.20
2022-08-05T04:17:56.189Z,8.10
2022-08-05T04:20:41.316Z,8.60
2022-08-05T04:24:00.198Z,8.00
2022-08-05T04:26:54.365Z,8.50
2022-08-05T04:30:03.759Z,7.80
2022-08-05T04:32:49.709Z,8.10
2022-08-05T04:36:09.520Z,8.30
2022-08-05T04:38:57.713Z,7.30
2022-08-05T04:41:41.204Z,7.40
2022-08-05T04:44:30.690Z,8.40
2022-08-05T04:47:19.996Z,8.20
2022-08-05T04:50:11.098Z,7.50
2022-08-05T04:53:08.502Z,7.50
2022-08-05T04:56:32.747Z,7.10
2022-08-05T04:59:24.338Z,7.40
2022-08-05T05:02:43.408Z,7.40
2022-08-05T05:05:32.767Z,7.20
2022-08-05T05:08:42.732Z,8.00
2022-08-05T05:11:41.999Z,7.00
2022-08-05T05:14:32.367Z,9.40
2022-08-05T05:17:23.868Z,7.80
2022-08-05T05:22:54.605Z,7.30
2022-08-05T05:25:40.781Z,6.40
2022-08-05T05:28:27.448Z,6.10
2022-08-05T05:31:15.223Z,6.40
2022-08-05T05:34:02.907Z,6.00
2022-08-05T05:36:47.214Z,5.50
2022-08-05T05:39:35.187Z,5.00
2022-08-05T05:42:20.837Z,4.90
2022-08-05T05:45:07.076Z,4.70
2022-08-05T05:48:06.853Z,4.70
2022-08-05T05:50:52.563Z,5.20
2022-08-05T05:53:54.167Z,5.10
2022-08-05T05:56:38.529Z,4.70
2022-08-05T05:59:25.768Z,4.70
2022-08-05T06:02:12.026Z,6.40
2022-08-05T06:04:55.316Z,5.40
2022-08-05T06:07:42.696Z,5.00
2022-08-05T06:10:52.363Z,5.70
2022-08-05T06:16:30.547Z,4.80
2022-08-05T06:19:15.293Z,5.60
2022-08-05T06:22:24.925Z,4.90
2022-08-05T06:25:59.549Z,4.50
2022-08-05T06:28:21.225Z,4.90
2022-08-05T06:31:11.082Z,4.90
2022-08-05T06:34:06.861Z,5.50
2022-08-05T06:36:58.773Z,4.80
2022-08-05T06:39:45.236Z,4.40
2022-08-05T06:42:28.625Z,4.70
2022-08-05T06:45:21.243Z,4.80
2022-08-05T06:48:50.227Z,5.10
2022-08-05T06:51:29.391Z,4.70
2022-08-05T06:54:19.141Z,4.70
2022-08-05T06:57:56.725Z,4.50
2022-08-05T07:00:07.170Z,5.80
2022-08-05T07:03:01.542Z,4.90
2022-08-05T07:08:55.034Z,5.00
2022-08-05T07:11:39.804Z,4.60
2022-08-05T07:14:41.675Z,5.30
2022-08-05T07:17:57.118Z,5.60
2022-08-05T07:20:41.209Z,4.70
2022-08-05T07:23:29.609Z,4.90
2022-08-05T07:26:22.699Z,6.20
2022-08-05T07:29:09.842Z,5.30
2022-08-05T07:31:54.516Z,5.50
2022-08-05T07:34:42.023Z,5.70
2022-08-05T07:37:29.238Z,4.60
2022-08-05T07:40:31.450Z,4.70
2022-08-05T07:43:20.806Z,4.70
2022-08-05T07:46:04.243Z,4.60
2022-08-05T07:49:06.229Z,6.00
2022-08-05T07:51:54.532Z,4.80
2022-08-05T07:54:47.633Z,4.60
2022-08-05T07:57:55.222Z,5.10
2022-08-05T08:00:38.245Z,4.70
2022-08-05T08:03:21.626Z,4.80
2022-08-05T08:06:04.808Z,4.70
2022-08-05T08:08:48.268Z,5.00
2022-08-05T08:11:47.445Z,5.80
2022-08-05T08:14:36.014Z,4.90
2022-08-05T08:17:18.943Z,5.20
2022-08-05T08:20:42.674Z,4.90
2022-08-05T08:24:00.263Z,5.20
2022-08-05T08:26:14.339Z,5.00
2022-08-05T08:29:21.540Z,5.00
2022-08-05T08:32:04.653Z,5.00
2022-08-05T08:34:53.878Z,5.10
2022-08-05T08:37:40.259Z,5.00
2022-08-05T08:40:28.155Z,5.20
2022-08-05T08:45:19.384Z,5.10
2022-08-05T08:46:17.987Z,5.20
2022-08-05T08:50:05.863Z,4.20
2022-08-05T08:52:19.894Z,4.30
2022-08-05T08:55:04.286Z,4.80
2022-08-05T08:57:58.363Z,4.70
2022-08-05T09:00:44.709Z,4.60
2022-08-05T09:03:44.857Z,4.80
2022-08-05T09:06:31.236Z,4.40
2022-08-05T09:09:16.629Z,5.10
2022-08-05T09:12:05.976Z,4.70
2022-08-05T09:15:06.067Z,4.60
2022-08-05T09:20:37.901Z,5.00
2022-08-05T09:23:22.128Z,4.80
2022-08-05T09:26:16.010Z,4.80
2022-08-05T09:29:08.985Z,5.10
2022-08-05T09:32:41.033Z,5.60
2022-08-05T09:35:26.493Z,4.50
2022-08-05T09:38:16.671Z,5.50
2022-08-05T09:41:12.196Z,6.80
2022-08-05T09:43:59.145Z,5.30
2022-08-05T09:46:53.609Z,5.20
2022-08-05T09:50:01.566Z,5.00
2022-08-05T09:52:47.254Z,5.30
2022-08-05T09:55:58.101Z,5.30
2022-08-05T09:58:42.022Z,4.70
2022-08-05T10:01:32.061Z,5.30
2022-08-05T10:04:18.565Z,5.00
2022-08-05T10:07:19.925Z,4.70
2022-08-05T10:10:14.250Z,5.00
2022-08-05T10:13:02.656Z,4.90
2022-08-05T10:15:53.984Z,4.80
2022-08-05T10:18:38.394Z,4.80
2022-08-05T10:21:22.371Z,4.80
2022-08-05T10:24:10.708Z,4.70
2022-08-05T10:27:00.434Z,4.90
2022-08-05T10:30:06.608Z,5.20
2022-08-05T10:32:59.925Z,5.30
2022-08-05T10:35:50.992Z,5.30
2022-08-05T10:38:57.224Z,4.90
2022-08-05T10:41:54.970Z,5.20
2022-08-05T10:44:44.750Z,6.30
2022-08-05T10:47:33.118Z,5.40
2022-08-05T10:50:32.251Z,5.10
2022-08-05T10:53:45.382Z,4.80
2022-08-05T10:56:39.872Z,5.00
2022-08-05T11:00:02.606Z,4.80
2022-08-05T11:02:43.834Z,5.50
2022-08-05T11:05:34.763Z,6.20
2022-08-05T11:08:33.884Z,5.20
2022-08-05T11:11:52.976Z,6.80
2022-08-05T11:17:57.418Z,4.80
2022-08-05T11:20:46.399Z,5.10
2022-08-05T11:24:04.103Z,4.50
2022-08-05T11:26:51.269Z,4.70
2022-08-05T11:29:40.275Z,5.00
2022-08-05T11:32:29.111Z,4.60
2022-08-05T11:36:08.212Z,5.40
2022-08-05T11:38:54.672Z,4.50
2022-08-05T11:42:01.508Z,4.80
2022-08-05T11:44:53.822Z,4.60
2022-08-05T11:47:48.462Z,5.80
2022-08-05T11:50:38.680Z,4.80
2022-08-05T11:53:25.455Z,5.20
2022-08-05T11:56:08.693Z,5.50
2022-08-05T11:58:54.359Z,4.80
2022-08-05T12:01:37.159Z,5.60
2022-08-05T12:04:22.333Z,6.50
2022-08-05T12:07:07.718Z,4.80
2022-08-05T12:10:05.967Z,4.70
2022-08-05T12:12:59.597Z,4.50
2022-08-05T12:15:50.054Z,4.70
2022-08-05T12:18:38.986Z,5.80
2022-08-05T12:21:26.746Z,5.20
2022-08-05T12:24:20.256Z,4.60
2022-08-05T12:27:09.551Z,4.20
2022-08-05T12:30:07.906Z,4.10
2022-08-05T12:32:56.355Z,4.90
2022-08-05T12:35:39.898Z,4.40
2022-08-05T12:38:31.450Z,3.80
2022-08-05T12:41:16.494Z,4.90
2022-08-05T12:44:05.878Z,3.80
2022-08-05T12:46:55.967Z,4.70
2022-08-05T12:50:04.339Z,4.10
2022-08-05T12:52:57.886Z,3.90
2022-08-05T12:55:40.878Z,4.20
2022-08-05T12:58:38.248Z,4.80
2022-08-05T13:02:04.443Z,4.20
2022-08-05T13:04:41.776Z,3.70
2022-08-05T13:08:00.057Z,4.20
2022-08-05T13:10:50.505Z,3.80
2022-08-05T13:14:04.904Z,4.30
2022-08-05T13:16:47.622Z,4.60
2022-08-05T13:19:51.900Z,4.00
2022-08-05T13:22:37.654Z,3.60
2022-08-05T13:25:52.437Z,4.00
2022-08-05T13:28:25.325Z,4.20
2022-08-05T13:31:13.889Z,4.00
2022-08-05T13:34:24.756Z,3.50
2022-08-05T13:37:01.184Z,3.70
2022-08-05T13:40:16.017Z,3.30
2022-08-05T13:42:47.136Z,3.80
2022-08-05T13:45:33.985Z,3.50
2022-08-05T13:48:58.127Z,3.50
2022-08-05T13:51:29.622Z,3.50
2022-08-05T13:54:20.965Z,3.40
2022-08-05T13:57:09.347Z,3.80
2022-08-05T13:59:57.376Z,3.20
2022-08-05T14:02:42.383Z,3.70
2022-08-05T14:05:48.011Z,3.60
2022-08-05T14:08:32.687Z,5.90
2022-08-05T14:11:20.460Z,3.60
2022-08-05T14:14:05.350Z,3.50
2022-08-05T14:16:51.178Z,3.40
2022-08-05T14:19:55.434Z,4.00
2022-08-05T14:22:38.938Z,4.30
2022-08-05T14:25:33.968Z,3.80
2022-08-05T14:28:26.239Z,3.40
2022-08-05T14:31:17.260Z,3.60
2022-08-05T14:34:12.651Z,3.70
2022-08-05T14:36:56.424Z,4.60
2022-08-05T14:39:50.272Z,3.50
2022-08-05T14:42:41.463Z,4.00
2022-08-05T14:45:25.405Z,4.00
2022-08-05T14:48:09.842Z,3.60
2022-08-05T14:51:16.193Z,4.00
2022-08-05T14:54:27.411Z,4.70
2022-08-05T14:57:05.265Z,4.00
2022-08-05T14:59:52.495Z,4.10
2022-08-05T15:02:36.167Z,3.90
2022-08-05T15:05:29.609Z,3.60
2022-08-05T15:08:38.118Z,3.70
2022-08-05T15:11:20.553Z,3.60
2022-08-05T15:14:35.017Z,5.00
2022-08-05T15:17:45.680Z,4.50
2022-08-05T15:20:29.081Z,3.90
2022-08-05T15:23:12.730Z,4.30
2022-08-05T15:25:59.735Z,4.10
2022-08-05T15:28:45.808Z,4.10
2022-08-05T15:31:35.192Z,3.80
2022-08-05T15:34:32.609Z,3.80
2022-08-05T15:37:20.657Z,4.00
2022-08-05T15:40:58.661Z,3.90
2022-08-05T15:43:26.886Z,4.10
2022-08-05T15:46:09.930Z,3.80
2022-08-05T15:49:00.719Z,3.70
2022-08-05T15:52:03.651Z,4.00
2022-08-05T15:54:55.784Z,4.00
2022-08-05T15:57:42.163Z,4.30
2022-08-05T16:00:42.977Z,3.90
2022-08-05T16:03:32.618Z,4.70
2022-08-05T16:06:20.206Z,4.90
2022-08-05T16:09:04.130Z,4.50
2022-08-05T16:11:52.597Z,4.80
2022-08-05T16:14:36.173Z,4.90
2022-08-05T16:17:19.555Z,4.20
2022-08-05T16:20:05.130Z,6.50
2022-08-05T16:22:54.409Z,7.00
2022-08-05T16:25:37.799Z,6.70
2022-08-05T16:28:21.850Z,7.90
2022-08-05T16:31:07.437Z,6.70
2022-08-05T16:33:53.767Z,7.30
2022-08-05T16:36:36.694Z,7.70
2022-08-05T16:40:06.248Z,7.40
2022-08-05T16:42:28.744Z,7.30
2022-08-05T16:46:03.549Z,8.30
2022-08-05T16:48:25.306Z,7.60
2022-08-05T16:51:10.837Z,8.20
2022-08-05T16:54:03.948Z,7.00
2022-08-05T16:56:52.453Z,7.70
2022-08-05T16:59:35.466Z,6.90
2022-08-05T17:02:38.370Z,6.50
2022-08-05T17:05:23.919Z,6.90
2022-08-05T17:08:06.944Z,6.20
2022-08-05T17:10:50.888Z,5.60
2022-08-05T17:13:37.409Z,5.70
2022-08-05T17:16:32.727Z,5.60
2022-08-05T17:19:16.808Z,5.20
2022-08-05T17:21:59.804Z,5.30
2022-08-05T17:24:57.755Z,5.10
2022-08-05T17:27:41.577Z,4.60
2022-08-05T17:30:28.372Z,4.50
2022-08-05T17:33:11.987Z,4.30
2022-08-05T17:36:09.429Z,4.40
2022-08-05T17:38:53.295Z,4.00
2022-08-05T17:42:17.768Z,4.40
2022-08-05T17:44:41.602Z,3.60
2022-08-05T17:47:33.518Z,3.50
2022-08-05T17:50:28.868Z,4.00
2022-08-05T17:53:13.185Z,4.00
2022-08-05T17:55:59.902Z,4.60
2022-08-05T17:58:45.724Z,4.20
2022-08-05T18:01:28.640Z,4.30
2022-08-05T18:04:32.126Z,4.40
2022-08-05T18:07:15.861Z,4.90
2022-08-05T18:10:10.529Z,5.00
2022-08-05T18:12:53.890Z,4.70
2022-08-05T18:15:38.661Z,4.70
2022-08-05T18:18:21.952Z,4.80
2022-08-05T18:21:13.337Z,5.10
2022-08-05T18:24:06.050Z,5.60
2022-08-05T18:27:02.232Z,5.50
2022-08-05T18:29:48.206Z,5.00
2022-08-05T18:33:00.295Z,5.30
2022-08-05T18:36:00.723Z,5.00
2022-08-05T18:38:48.256Z,5.50
2022-08-05T18:41:53.397Z,5.30
2022-08-05T18:44:49.375Z,6.10
2022-08-05T18:47:39.069Z,5.40
2022-08-05T18:51:01.546Z,5.60
2022-08-05T18:56:29.337Z,5.40
2022-08-05T18:59:44.469Z,5.60
2022-08-05T19:02:35.267Z,6.20
2022-08-05T19:06:11.209Z,5.50
2022-08-05T19:08:38.741Z,5.40
2022-08-05T19:11:56.706Z,5.20
2022-08-05T19:15:00.638Z,7.30
2022-08-05T19:18:10.375Z,6.40
2022-08-05T19:21:16.764Z,6.80
2022-08-05T19:24:05.510Z,6.10
2022-08-05T19:26:55.756Z,5.90
2022-08-05T19:29:40.285Z,6.20
2022-08-05T19:32:29.158Z,5.80
2022-08-05T19:35:12.409Z,5.50
2022-08-05T19:38:06.473Z,6.00
2022-08-05T19:41:01.143Z,5.80
2022-08-05T19:44:07.011Z,5.50
2022-08-05T19:46:47.581Z,5.80
2022-08-05T19:49:33.553Z,6.40
2022-08-05T19:52:30.639Z,5.90
2022-08-05T19:56:13.898Z,6.50
2022-08-05T19:58:28.863Z,6.60
2022-08-05T20:01:13.319Z,6.60
2022-08-05T20:03:56.499Z,6.90
2022-08-05T20:06:46.578Z,6.40
2022-08-05T20:09:29.903Z,7.10
2022-08-05T20:12:32.796Z,6.30
2022-08-05T20:15:23.139Z,6.50
2022-08-05T20:18:35.909Z,7.20
2022-08-05T20:21:19.612Z,6.20
2022-08-05T20:24:04.774Z,5.90
2022-08-05T20:26:48.385Z,6.00
2022-08-05T20:29:32.863Z,5.80
2022-08-05T20:32:18.943Z,6.50
2022-08-05T20:35:04.739Z,5.80
2022-08-05T20:38:07.700Z,6.30
2022-08-05T20:40:53.518Z,5.80
2022-08-05T20:43:59.132Z,6.20
2022-08-05T20:46:41.563Z,5.50
2022-08-05T20:49:26.387Z,6.00
2022-08-05T20:52:10.669Z,5.90
2022-08-05T20:55:55.551Z,6.40
2022-08-05T20:57:58.442Z,6.80
2022-08-05T21:00:52.042Z,6.60
2022-08-05T21:03:40.710Z,5.60
2022-08-05T21:06:34.398Z,6.20
2022-08-05T21:09:21.869Z,6.00
2022-08-05T21:12:09.193Z,6.80
2022-08-05T21:15:14.263Z,6.00
2022-08-05T21:18:01.963Z,7.10
2022-08-05T21:20:45.110Z,6.70
2022-08-05T21:23:29.422Z,7.10
2022-08-05T21:26:26.315Z,6.10
2022-08-05T21:32:01.988Z,5.90
2022-08-05T21:35:06.866Z,6.30
2022-08-05T21:37:53.757Z,6.50
2022-08-05T21:40:36.997Z,6.30
2022-08-05T21:43:33.572Z,5.90
2022-08-05T21:46:27.982Z,6.40
2022-08-05T21:49:59.295Z,6.20
2022-08-05T21:52:47.097Z,6.60
2022-08-05T21:56:04.954Z,5.70
2022-08-05T21:59:24.284Z,6.50
2022-08-05T22:02:20.480Z,6.10
2022-08-05T22:05:09.230Z,6.50
2022-08-05T22:07:58.119Z,6.40
2022-08-05T22:10:43.133Z,6.30
2022-08-05T22:14:34.437Z,6.90
2022-08-05T22:16:53.083Z,7.40
2022-08-05T22:20:01.662Z,7.30
2022-08-05T22:23:16.641Z,6.50
2022-08-05T22:26:24.162Z,7.30
2022-08-05T22:29:30.680Z,7.00
2022-08-05T22:32:23.104Z,6.60
2022-08-05T22:35:10.742Z,7.00
2022-08-05T22:37:58.683Z,7.70
2022-08-05T22:40:49.598Z,6.90
2022-08-05T22:43:44.366Z,7.70
2022-08-05T22:46:40.177Z,7.30
2022-08-05T22:50:18.121Z,7.60
2022-08-05T22:52:35.316Z,7.30
2022-08-05T22:55:26.851Z,6.90
2022-08-05T22:58:30.342Z,7.30
2022-08-05T23:01:21.832Z,8.20
2022-08-05T23:04:35.984Z,7.90
2022-08-05T23:07:45.021Z,8.10
2022-08-05T23:10:31.216Z,7.20
2022-08-05T23:13:15.281Z,7.20
2022-08-05T23:16:01.335Z,6.90
2022-08-05T23:19:04.766Z,7.60
2022-08-05T23:22:10.491Z,7.40
2022-08-05T23:24:58.481Z,7.60
2022-08-05T23:28:00.302Z,7.60
2022-08-05T23:30:53.545Z,7.40
2022-08-05T23:34:02.980Z,7.30
2022-08-05T23:36:44.841Z,7.40
2022-08-05T23:39:44.462Z,7.30
2022-08-05T23:42:31.514Z,7.60
2022-08-05T23:45:16.434Z,7.10
2022-08-05T23:48:03.112Z,7.40
2022-08-05T23:50:47.496Z,7.50
2022-08-05T23:53:46.491Z,8.10
2022-08-05T23:56:30.095Z,7.00
2022-08-05T23:59:16.831Z,6.90
